sensor_id;sensor_type;location;lat;lon;timestamp;pressure;altitude;pressure_sealevel;temperature;humidity
77027;BME280;65956;52.986;17.490;2023-04-24T00:00:16;99332.33;;;10.22;87.10
77027;BME280;65956;52.986;17.490;2023-04-24T00:03:03;99332.32;;;10.24;87.13
77027;BME280;65956;52.986;17.490;2023-04-24T00:05:29;99332.50;;;10.28;87.38
77027;BME280;65956;52.986;17.490;2023-04-24T00:07:55;99325.17;;;10.32;87.39
77027;BME280;65956;52.986;17.490;2023-04-24T00:10:21;99321.69;;;10.35;87.50
77027;BME280;65956;52.986;17.490;2023-04-24T00:12:47;99317.40;;;10.38;87.37
77027;BME280;65956;52.986;17.490;2023-04-24T00:15:13;99309.77;;;10.41;87.39
77027;BME280;65956;52.986;17.490;2023-04-24T00:17:39;99306.02;;;10.45;87.50
77027;BME280;65956;52.986;17.490;2023-04-24T00:20:06;99307.78;;;10.49;87.27
77027;BME280;65956;52.986;17.490;2023-04-24T00:22:33;99306.76;;;10.52;87.14
77027;BME280;65956;52.986;17.490;2023-04-24T00:24:59;99308.11;;;10.58;87.13
77027;BME280;65956;52.986;17.490;2023-04-24T00:27:25;99301.42;;;10.64;86.96
77027;BME280;65956;52.986;17.490;2023-04-24T00:29:51;99300.31;;;10.73;87.10
77027;BME280;65956;52.986;17.490;2023-04-24T00:32:17;99298.17;;;10.79;87.36
77027;BME280;65956;52.986;17.490;2023-04-24T00:34:43;99294.50;;;10.86;87.24
77027;BME280;65956;52.986;17.490;2023-04-24T00:37:09;99295.70;;;10.92;87.28
77027;BME280;65956;52.986;17.490;2023-04-24T00:39:36;99291.86;;;10.98;87.33
77027;BME280;65956;52.986;17.490;2023-04-24T00:42:03;99288.91;;;11.01;87.14
77027;BME280;65956;52.986;17.490;2023-04-24T00:44:29;99292.65;;;11.04;87.11
77027;BME280;65956;52.986;17.490;2023-04-24T00:46:55;99289.15;;;11.03;86.86
77027;BME280;65956;52.986;17.490;2023-04-24T00:49:22;99286.29;;;10.98;86.44
77027;BME280;65956;52.986;17.490;2023-04-24T00:51:48;99281.44;;;10.93;86.13
77027;BME280;65956;52.986;17.490;2023-04-24T00:54:17;99282.48;;;10.88;85.95
77027;BME280;65956;52.986;17.490;2023-04-24T00:56:44;99281.20;;;10.84;85.92
77027;BME280;65956;52.986;17.490;2023-04-24T00:59:12;99278.03;;;10.79;85.77
77027;BME280;65956;52.986;17.490;2023-04-24T01:01:39;99278.27;;;10.76;85.91
77027;BME280;65956;52.986;17.490;2023-04-24T01:04:09;99274.44;;;10.72;86.04
77027;BME280;65956;52.986;17.490;2023-04-24T01:06:39;99273.95;;;10.71;86.09
77027;BME280;65956;52.986;17.490;2023-04-24T01:09:06;99275.00;;;10.69;86.33
77027;BME280;65956;52.986;17.490;2023-04-24T01:11:37;99270.94;;;10.70;86.55
77027;BME280;65956;52.986;17.490;2023-04-24T01:14:04;99271.98;;;10.72;86.81
77027;BME280;65956;52.986;17.490;2023-04-24T01:16:30;99271.41;;;10.75;87.07
77027;BME280;65956;52.986;17.490;2023-04-24T01:18:56;99273.40;;;10.78;87.18
77027;BME280;65956;52.986;17.490;2023-04-24T01:21:23;99273.80;;;10.82;87.13
77027;BME280;65956;52.986;17.490;2023-04-24T01:23:53;99267.83;;;10.85;87.09
77027;BME280;65956;52.986;17.490;2023-04-24T01:26:19;99261.94;;;10.87;87.34
77027;BME280;65956;52.986;17.490;2023-04-24T01:28:46;99261.52;;;10.91;87.46
77027;BME280;65956;52.986;17.490;2023-04-24T01:31:13;99257.15;;;10.96;87.54
77027;BME280;65956;52.986;17.490;2023-04-24T01:33:41;99260.56;;;11.00;87.71
77027;BME280;65956;52.986;17.490;2023-04-24T01:36:10;99261.19;;;11.05;87.64
77027;BME280;65956;52.986;17.490;2023-04-24T01:38:37;99264.29;;;11.08;87.55
77027;BME280;65956;52.986;17.490;2023-04-24T01:41:03;99269.70;;;11.11;87.55
77027;BME280;65956;52.986;17.490;2023-04-24T01:43:29;99269.77;;;11.14;87.56
77027;BME280;65956;52.986;17.490;2023-04-24T01:45:57;99267.77;;;11.14;87.51
77027;BME280;65956;52.986;17.490;2023-04-24T01:48:23;99266.89;;;11.14;87.38
77027;BME280;65956;52.986;17.490;2023-04-24T01:50:49;99265.23;;;11.13;87.21
77027;BME280;65956;52.986;17.490;2023-04-24T01:53:15;99262.45;;;11.12;87.10
77027;BME280;65956;52.986;17.490;2023-04-24T01:55:42;99257.60;;;11.12;87.19
77027;BME280;65956;52.986;17.490;2023-04-24T01:58:08;99259.73;;;11.14;87.24
77027;BME280;65956;52.986;17.490;2023-04-24T02:00:34;99257.73;;;11.16;87.26
77027;BME280;65956;52.986;17.490;2023-04-24T02:03:00;99260.36;;;11.18;87.31
77027;BME280;65956;52.986;17.490;2023-04-24T02:05:28;99262.75;;;11.21;87.29
77027;BME280;65956;52.986;17.490;2023-04-24T02:07:55;99252.22;;;11.24;87.45
77027;BME280;65956;52.986;17.490;2023-04-24T02:10:21;99255.95;;;11.28;87.53
77027;BME280;65956;52.986;17.490;2023-04-24T02:12:47;99253.96;;;11.29;87.43
77027;BME280;65956;52.986;17.490;2023-04-24T02:15:14;99248.63;;;11.30;87.41
77027;BME280;65956;52.986;17.490;2023-04-24T02:17:40;99247.74;;;11.29;87.36
77027;BME280;65956;52.986;17.490;2023-04-24T02:20:07;99248.63;;;11.29;87.30
77027;BME280;65956;52.986;17.490;2023-04-24T02:22:33;99243.52;;;11.31;87.27
77027;BME280;65956;52.986;17.490;2023-04-24T02:25:01;99239.77;;;11.33;87.39
77027;BME280;65956;52.986;17.490;2023-04-24T02:27:27;99242.30;;;11.36;87.37
77027;BME280;65956;52.986;17.490;2023-04-24T02:29:53;99243.27;;;11.38;87.47
77027;BME280;65956;52.986;17.490;2023-04-24T02:32:19;99240.77;;;11.41;87.38
77027;BME280;65956;52.986;17.490;2023-04-24T02:34:45;99241.73;;;11.43;87.44
77027;BME280;65956;52.986;17.490;2023-04-24T02:37:12;99241.89;;;11.43;87.35
77027;BME280;65956;52.986;17.490;2023-04-24T02:39:38;99237.27;;;11.42;87.47
77027;BME280;65956;52.986;17.490;2023-04-24T02:42:04;99232.16;;;11.42;87.53
77027;BME280;65956;52.986;17.490;2023-04-24T02:44:30;99224.59;;;11.42;87.54
77027;BME280;65956;52.986;17.490;2023-04-24T02:46:56;99225.86;;;11.42;87.66
77027;BME280;65956;52.986;17.490;2023-04-24T02:49:22;99229.03;;;11.45;87.71
77027;BME280;65956;52.986;17.490;2023-04-24T02:51:48;99230.48;;;11.47;87.79
77027;BME280;65956;52.986;17.490;2023-04-24T02:54:14;99227.74;;;11.50;87.84
77027;BME280;65956;52.986;17.490;2023-04-24T02:56:40;99225.42;;;11.53;87.79
77027;BME280;65956;52.986;17.490;2023-04-24T02:59:07;99226.45;;;11.55;87.96
77027;BME280;65956;52.986;17.490;2023-04-24T03:01:34;99221.90;;;11.56;87.95
77027;BME280;65956;52.986;17.490;2023-04-24T03:04:01;99225.55;;;11.58;87.79
77027;BME280;65956;52.986;17.490;2023-04-24T03:06:27;99229.14;;;11.58;87.88
77027;BME280;65956;52.986;17.490;2023-04-24T03:08:53;99225.65;;;11.56;87.82
77027;BME280;65956;52.986;17.490;2023-04-24T03:11:20;99219.29;;;11.53;87.72
77027;BME280;65956;52.986;17.490;2023-04-24T03:13:46;99220.80;;;11.51;87.67
77027;BME280;65956;52.986;17.490;2023-04-24T03:16:12;99221.52;;;11.51;87.64
77027;BME280;65956;52.986;17.490;2023-04-24T03:18:38;99220.65;;;11.49;87.67
77027;BME280;65956;52.986;17.490;2023-04-24T03:21:04;99222.34;;;11.48;87.61
77027;BME280;65956;52.986;17.490;2023-04-24T03:23:31;99229.04;;;11.47;87.61
77027;BME280;65956;52.986;17.490;2023-04-24T03:25:57;99226.27;;;11.45;87.60
77027;BME280;65956;52.986;17.490;2023-04-24T03:28:24;99227.84;;;11.45;87.79
77027;BME280;65956;52.986;17.490;2023-04-24T03:31:03;99222.81;;;11.47;87.83
77027;BME280;65956;52.986;17.490;2023-04-24T03:33:32;99222.27;;;11.47;87.86
77027;BME280;65956;52.986;17.490;2023-04-24T03:36:00;99213.10;;;11.48;87.88
77027;BME280;65956;52.986;17.490;2023-04-24T03:38:27;99207.58;;;11.49;87.85
77027;BME280;65956;52.986;17.490;2023-04-24T03:40:57;99201.92;;;11.51;87.85
77027;BME280;65956;52.986;17.490;2023-04-24T03:43:39;99205.88;;;11.54;87.87
77027;BME280;65956;52.986;17.490;2023-04-24T03:46:05;99206.02;;;11.56;87.83
77027;BME280;65956;52.986;17.490;2023-04-24T03:48:34;99205.46;;;11.58;87.95
77027;BME280;65956;52.986;17.490;2023-04-24T03:51:01;99205.86;;;11.59;87.85
77027;BME280;65956;52.986;17.490;2023-04-24T03:53:28;99202.65;;;11.61;87.83
77027;BME280;65956;52.986;17.490;2023-04-24T03:55:55;99199.62;;;11.63;87.69
77027;BME280;65956;52.986;17.490;2023-04-24T03:58:21;99196.12;;;11.62;87.76
77027;BME280;65956;52.986;17.490;2023-04-24T04:00:47;99198.59;;;11.63;87.80
77027;BME280;65956;52.986;17.490;2023-04-24T04:03:36;99200.17;;;11.64;87.68
77027;BME280;65956;52.986;17.490;2023-04-24T04:06:02;99200.02;;;11.64;87.76
77027;BME280;65956;52.986;17.490;2023-04-24T04:08:29;99197.30;;;11.65;87.85
77027;BME280;65956;52.986;17.490;2023-04-24T04:10:55;99201.59;;;11.66;87.90
77027;BME280;65956;52.986;17.490;2023-04-24T04:13:22;99193.55;;;11.66;87.90
77027;BME280;65956;52.986;17.490;2023-04-24T04:15:48;99193.93;;;11.67;87.97
77027;BME280;65956;52.986;17.490;2023-04-24T04:18:15;99191.94;;;11.68;87.91
77027;BME280;65956;52.986;17.490;2023-04-24T04:20:41;99191.70;;;11.71;87.81
77027;BME280;65956;52.986;17.490;2023-04-24T04:23:08;99189.86;;;11.74;87.79
77027;BME280;65956;52.986;17.490;2023-04-24T04:26:01;99181.80;;;11.77;87.78
77027;BME280;65956;52.986;17.490;2023-04-24T04:28:37;99179.38;;;11.81;87.95
77027;BME280;65956;52.986;17.490;2023-04-24T04:31:05;99181.43;;;11.84;87.89
77027;BME280;65956;52.986;17.490;2023-04-24T04:33:33;99178.55;;;11.86;87.91
77027;BME280;65956;52.986;17.490;2023-04-24T04:36:00;99177.18;;;11.88;87.79
77027;BME280;65956;52.986;17.490;2023-04-24T04:38:27;99177.09;;;11.91;87.87
77027;BME280;65956;52.986;17.490;2023-04-24T04:41:08;99176.81;;;11.94;87.87
77027;BME280;65956;52.986;17.490;2023-04-24T04:43:34;99179.75;;;11.97;87.86
77027;BME280;65956;52.986;17.490;2023-04-24T04:46:03;99178.94;;;11.99;87.67
77027;BME280;65956;52.986;17.490;2023-04-24T04:48:47;99177.64;;;12.01;87.47
77027;BME280;65956;52.986;17.490;2023-04-24T04:51:14;99173.97;;;12.03;87.59
77027;BME280;65956;52.986;17.490;2023-04-24T04:53:40;99169.34;;;12.04;87.55
77027;BME280;65956;52.986;17.490;2023-04-24T04:56:06;99160.16;;;12.05;87.53
77027;BME280;65956;52.986;17.490;2023-04-24T04:58:41;99154.47;;;12.07;87.65
77027;BME280;65956;52.986;17.490;2023-04-24T05:01:09;99152.16;;;12.07;87.50
77027;BME280;65956;52.986;17.490;2023-04-24T05:03:41;99152.87;;;12.08;87.61
77027;BME280;65956;52.986;17.490;2023-04-24T05:06:09;99148.30;;;12.10;87.54
77027;BME280;65956;52.986;17.490;2023-04-24T05:08:38;99148.61;;;12.13;87.49
77027;BME280;65956;52.986;17.490;2023-04-24T05:11:06;99146.51;;;12.15;87.53
77027;BME280;65956;52.986;17.490;2023-04-24T05:13:32;99146.63;;;12.20;87.46
77027;BME280;65956;52.986;17.490;2023-04-24T05:15:59;99146.98;;;12.24;87.35
77027;BME280;65956;52.986;17.490;2023-04-24T05:18:25;99145.48;;;12.32;87.23
77027;BME280;65956;52.986;17.490;2023-04-24T05:20:52;99141.21;;;12.36;87.05
77027;BME280;65956;52.986;17.490;2023-04-24T05:23:18;99133.88;;;12.36;86.88
77027;BME280;65956;52.986;17.490;2023-04-24T05:25:45;99138.02;;;12.37;86.98
77027;BME280;65956;52.986;17.490;2023-04-24T05:28:12;99143.10;;;12.41;86.93
77027;BME280;65956;52.986;17.490;2023-04-24T05:30:39;99142.64;;;12.47;86.78
77027;BME280;65956;52.986;17.490;2023-04-24T05:33:06;99149.35;;;12.54;86.77
77027;BME280;65956;52.986;17.490;2023-04-24T05:35:33;99146.80;;;12.62;86.55
77027;BME280;65956;52.986;17.490;2023-04-24T05:38:00;99149.48;;;12.72;86.44
77027;BME280;65956;52.986;17.490;2023-04-24T05:40:26;99146.29;;;12.81;86.21
77027;BME280;65956;52.986;17.490;2023-04-24T05:42:52;99142.17;;;12.90;86.08
77027;BME280;65956;52.986;17.490;2023-04-24T05:45:18;99137.63;;;12.97;85.98
77027;BME280;65956;52.986;17.490;2023-04-24T05:47:44;99132.83;;;13.04;85.77
77027;BME280;65956;52.986;17.490;2023-04-24T05:50:11;99131.32;;;13.12;85.65
77027;BME280;65956;52.986;17.490;2023-04-24T05:52:37;99129.02;;;13.25;85.70
77027;BME280;65956;52.986;17.490;2023-04-24T05:55:08;99128.36;;;13.37;85.65
77027;BME280;65956;52.986;17.490;2023-04-24T05:57:34;99129.31;;;13.44;85.38
77027;BME280;65956;52.986;17.490;2023-04-24T06:00:03;99126.13;;;13.50;85.06
77027;BME280;65956;52.986;17.490;2023-04-24T06:02:39;99129.35;;;13.59;84.78
77027;BME280;65956;52.986;17.490;2023-04-24T06:05:06;99132.58;;;13.68;84.54
77027;BME280;65956;52.986;17.490;2023-04-24T06:07:33;99129.95;;;13.78;84.22
77027;BME280;65956;52.986;17.490;2023-04-24T06:10:02;99134.10;;;13.85;84.03
77027;BME280;65956;52.986;17.490;2023-04-24T06:12:29;99132.36;;;13.88;83.63
77027;BME280;65956;52.986;17.490;2023-04-24T06:15:00;99136.90;;;13.89;83.51
77027;BME280;65956;52.986;17.490;2023-04-24T06:17:39;99132.59;;;13.89;83.51
77027;BME280;65956;52.986;17.490;2023-04-24T06:20:06;99133.81;;;13.88;83.46
77027;BME280;65956;52.986;17.490;2023-04-24T06:22:33;99125.86;;;13.84;83.46
77027;BME280;65956;52.986;17.490;2023-04-24T06:25:00;99129.59;;;13.82;83.56
77027;BME280;65956;52.986;17.490;2023-04-24T06:27:26;99129.11;;;13.77;83.60
77027;BME280;65956;52.986;17.490;2023-04-24T06:29:52;99127.87;;;13.73;83.74
77027;BME280;65956;52.986;17.490;2023-04-24T06:32:24;99124.84;;;13.73;83.77
77027;BME280;65956;52.986;17.490;2023-04-24T06:34:53;99124.89;;;13.74;83.65
77027;BME280;65956;52.986;17.490;2023-04-24T06:37:22;99121.38;;;13.79;83.79
77027;BME280;65956;52.986;17.490;2023-04-24T06:39:48;99117.21;;;13.85;83.64
77027;BME280;65956;52.986;17.490;2023-04-24T06:42:15;99113.86;;;13.90;83.67
77027;BME280;65956;52.986;17.490;2023-04-24T06:44:43;99110.27;;;13.94;83.42
77027;BME280;65956;52.986;17.490;2023-04-24T06:47:10;99110.63;;;13.97;83.15
77027;BME280;65956;52.986;17.490;2023-04-24T06:49:37;99118.02;;;13.99;82.99
77027;BME280;65956;52.986;17.490;2023-04-24T06:52:03;99117.72;;;14.03;82.43
77027;BME280;65956;52.986;17.490;2023-04-24T06:54:30;99114.57;;;14.10;82.34
77027;BME280;65956;52.986;17.490;2023-04-24T06:56:57;99111.58;;;14.16;82.13
77027;BME280;65956;52.986;17.490;2023-04-24T06:59:24;99110.80;;;14.19;80.87
77027;BME280;65956;52.986;17.490;2023-04-24T07:01:50;99107.08;;;14.22;80.69
77027;BME280;65956;52.986;17.490;2023-04-24T07:04:17;99103.38;;;14.33;80.70
77027;BME280;65956;52.986;17.490;2023-04-24T07:06:45;99105.42;;;14.50;80.36
77027;BME280;65956;52.986;17.490;2023-04-24T07:09:12;99103.52;;;14.70;79.92
77027;BME280;65956;52.986;17.490;2023-04-24T07:11:39;99106.35;;;14.89;79.62
77027;BME280;65956;52.986;17.490;2023-04-24T07:14:07;99110.88;;;15.07;79.19
77027;BME280;65956;52.986;17.490;2023-04-24T07:16:33;99109.67;;;15.15;77.87
77027;BME280;65956;52.986;17.490;2023-04-24T07:18:59;99111.17;;;15.23;77.55
77027;BME280;65956;52.986;17.490;2023-04-24T07:21:26;99104.76;;;15.31;75.86
77027;BME280;65956;52.986;17.490;2023-04-24T07:23:52;99103.15;;;15.43;75.44
77027;BME280;65956;52.986;17.490;2023-04-24T07:26:20;99106.75;;;15.59;75.51
77027;BME280;65956;52.986;17.490;2023-04-24T07:28:46;99101.96;;;15.75;74.41
77027;BME280;65956;52.986;17.490;2023-04-24T07:31:12;99104.83;;;15.90;72.80
77027;BME280;65956;52.986;17.490;2023-04-24T07:33:38;99103.44;;;16.03;72.82
77027;BME280;65956;52.986;17.490;2023-04-24T07:36:04;99096.07;;;16.09;71.95
77027;BME280;65956;52.986;17.490;2023-04-24T07:38:31;99098.98;;;16.12;71.60
77027;BME280;65956;52.986;17.490;2023-04-24T07:40:57;99097.29;;;16.16;71.25
77027;BME280;65956;52.986;17.490;2023-04-24T07:43:23;99100.48;;;16.26;70.77
77027;BME280;65956;52.986;17.490;2023-04-24T07:45:50;99099.42;;;16.39;71.46
77027;BME280;65956;52.986;17.490;2023-04-24T07:48:17;99096.80;;;16.56;71.37
77027;BME280;65956;52.986;17.490;2023-04-24T07:50:44;99099.67;;;16.78;70.01
77027;BME280;65956;52.986;17.490;2023-04-24T07:53:10;99099.20;;;17.09;68.81
77027;BME280;65956;52.986;17.490;2023-04-24T07:55:36;99096.00;;;17.39;67.55
77027;BME280;65956;52.986;17.490;2023-04-24T07:58:02;99095.98;;;17.61;65.45
77027;BME280;65956;52.986;17.490;2023-04-24T08:00:29;99095.04;;;17.79;65.28
77027;BME280;65956;52.986;17.490;2023-04-24T08:02:55;99101.85;;;17.94;64.71
77027;BME280;65956;52.986;17.490;2023-04-24T08:05:21;99095.30;;;18.05;65.32
77027;BME280;65956;52.986;17.490;2023-04-24T08:07:47;99096.83;;;18.03;63.80
77027;BME280;65956;52.986;17.490;2023-04-24T08:10:16;99099.73;;;17.95;64.63
77027;BME280;65956;52.986;17.490;2023-04-24T08:12:42;99095.23;;;17.90;64.38
77027;BME280;65956;52.986;17.490;2023-04-24T08:15:08;99095.04;;;17.83;64.24
77027;BME280;65956;52.986;17.490;2023-04-24T08:17:35;99097.63;;;17.73;64.06
77027;BME280;65956;52.986;17.490;2023-04-24T08:20:02;99097.32;;;17.62;63.57
77027;BME280;65956;52.986;17.490;2023-04-24T08:22:31;99096.14;;;17.50;63.94
77027;BME280;65956;52.986;17.490;2023-04-24T08:25:00;99092.45;;;17.36;63.07
77027;BME280;65956;52.986;17.490;2023-04-24T08:27:26;99093.31;;;17.45;64.69
77027;BME280;65956;52.986;17.490;2023-04-24T08:29:53;99090.70;;;17.60;64.83
77027;BME280;65956;52.986;17.490;2023-04-24T08:32:19;99090.10;;;17.64;63.79
77027;BME280;65956;52.986;17.490;2023-04-24T08:34:45;99091.95;;;17.61;63.55
77027;BME280;65956;52.986;17.490;2023-04-24T08:37:11;99082.04;;;17.56;62.48
77027;BME280;65956;52.986;17.490;2023-04-24T08:39:38;99084.87;;;17.55;63.86
77027;BME280;65956;52.986;17.490;2023-04-24T08:42:05;99086.98;;;17.47;63.50
77027;BME280;65956;52.986;17.490;2023-04-24T08:44:34;99083.16;;;17.45;64.73
77027;BME280;65956;52.986;17.490;2023-04-24T08:47:02;99080.86;;;17.42;64.06
77027;BME280;65956;52.986;17.490;2023-04-24T08:49:29;99076.94;;;17.41;64.48
77027;BME280;65956;52.986;17.490;2023-04-24T08:51:55;99077.11;;;17.39;64.33
77027;BME280;65956;52.986;17.490;2023-04-24T08:54:21;99079.07;;;17.32;63.72
77027;BME280;65956;52.986;17.490;2023-04-24T08:56:48;99080.10;;;17.30;64.35
77027;BME280;65956;52.986;17.490;2023-04-24T08:59:15;99078.70;;;17.36;64.53
77027;BME280;65956;52.986;17.490;2023-04-24T09:01:42;99079.11;;;17.41;64.54
77027;BME280;65956;52.986;17.490;2023-04-24T09:04:12;99079.64;;;17.50;64.84
77027;BME280;65956;52.986;17.490;2023-04-24T09:06:40;99079.17;;;17.55;63.64
77027;BME280;65956;52.986;17.490;2023-04-24T09:09:07;99085.63;;;17.71;64.08
77027;BME280;65956;52.986;17.490;2023-04-24T09:11:34;99081.42;;;17.88;63.69
77027;BME280;65956;52.986;17.490;2023-04-24T09:14:00;99085.48;;;18.20;63.55
77027;BME280;65956;52.986;17.490;2023-04-24T09:16:27;99084.66;;;18.46;62.84
77027;BME280;65956;52.986;17.490;2023-04-24T09:18:53;99082.23;;;18.61;61.70
77027;BME280;65956;52.986;17.490;2023-04-24T09:21:22;99084.41;;;18.79;62.00
77027;BME280;65956;52.986;17.490;2023-04-24T09:24:00;99089.06;;;18.93;61.45
77027;BME280;65956;52.986;17.490;2023-04-24T09:26:29;99089.81;;;19.01;61.81
77027;BME280;65956;52.986;17.490;2023-04-24T09:28:57;99090.92;;;19.02;60.64
77027;BME280;65956;52.986;17.490;2023-04-24T09:31:23;99089.30;;;18.98;60.18
77027;BME280;65956;52.986;17.490;2023-04-24T09:36:19;99087.52;;;18.93;61.18
77027;BME280;65956;52.986;17.490;2023-04-24T09:38:45;99085.42;;;18.97;60.23
77027;BME280;65956;52.986;17.490;2023-04-24T09:41:13;99085.78;;;18.94;59.69
77027;BME280;65956;52.986;17.490;2023-04-24T09:43:39;99082.36;;;18.97;59.77
77027;BME280;65956;52.986;17.490;2023-04-24T09:46:07;99082.10;;;18.97;59.38
77027;BME280;65956;52.986;17.490;2023-04-24T09:48:36;99079.43;;;19.01;60.53
77027;BME280;65956;52.986;17.490;2023-04-24T09:51:05;99082.09;;;18.99;60.17
77027;BME280;65956;52.986;17.490;2023-04-24T09:53:37;99079.10;;;18.90;60.12
77027;BME280;65956;52.986;17.490;2023-04-24T09:56:08;99077.08;;;18.77;60.67
77027;BME280;65956;52.986;17.490;2023-04-24T09:58:36;99075.29;;;18.68;60.94
77027;BME280;65956;52.986;17.490;2023-04-24T10:01:02;99074.67;;;18.60;61.03
77027;BME280;65956;52.986;17.490;2023-04-24T10:03:32;99073.57;;;18.58;61.64
77027;BME280;65956;52.986;17.490;2023-04-24T10:06:00;99071.70;;;18.52;61.88
77027;BME280;65956;52.986;17.490;2023-04-24T10:08:26;99078.38;;;18.50;62.46
77027;BME280;65956;52.986;17.490;2023-04-24T10:10:59;99077.11;;;18.45;61.86
77027;BME280;65956;52.986;17.490;2023-04-24T10:13:25;99075.28;;;18.28;60.89
77027;BME280;65956;52.986;17.490;2023-04-24T10:15:52;99074.06;;;18.19;61.12
77027;BME280;65956;52.986;17.490;2023-04-24T10:18:20;99076.34;;;18.16;61.89
77027;BME280;65956;52.986;17.490;2023-04-24T10:20:46;99073.00;;;18.20;62.16
77027;BME280;65956;52.986;17.490;2023-04-24T10:23:12;99070.01;;;18.15;62.44
77027;BME280;65956;52.986;17.490;2023-04-24T10:25:38;99064.34;;;18.09;62.65
77027;BME280;65956;52.986;17.490;2023-04-24T10:28:05;99069.39;;;18.04;63.19
77027;BME280;65956;52.986;17.490;2023-04-24T10:30:35;99069.85;;;18.00;63.14
77027;BME280;65956;52.986;17.490;2023-04-24T10:33:02;99072.98;;;17.94;63.30
77027;BME280;65956;52.986;17.490;2023-04-24T10:35:32;99075.10;;;17.85;64.57
77027;BME280;65956;52.986;17.490;2023-04-24T10:38:09;99077.61;;;17.80;64.94
77027;BME280;65956;52.986;17.490;2023-04-24T10:40:35;99076.51;;;17.69;65.03
77027;BME280;65956;52.986;17.490;2023-04-24T10:43:03;99082.42;;;17.57;65.61
77027;BME280;65956;52.986;17.490;2023-04-24T10:45:32;99085.04;;;17.47;66.16
77027;BME280;65956;52.986;17.490;2023-04-24T10:50:44;99085.55;;;17.39;67.18
77027;BME280;65956;52.986;17.490;2023-04-24T10:53:19;99085.91;;;17.37;67.53
77027;BME280;65956;52.986;17.490;2023-04-24T10:55:51;99086.33;;;17.50;67.48
77027;BME280;65956;52.986;17.490;2023-04-24T10:58:24;99093.81;;;17.69;67.58
77027;BME280;65956;52.986;17.490;2023-04-24T11:00:59;99088.76;;;17.81;66.56
77027;BME280;65956;52.986;17.490;2023-04-24T11:03:33;99093.42;;;17.91;65.90
77027;BME280;65956;52.986;17.490;2023-04-24T11:06:08;99090.56;;;17.95;64.74
77027;BME280;65956;52.986;17.490;2023-04-24T11:08:44;99090.26;;;18.10;64.74
77027;BME280;65956;52.986;17.490;2023-04-24T11:11:16;99092.79;;;18.18;63.49
77027;BME280;65956;52.986;17.490;2023-04-24T11:16:31;99096.35;;;18.34;62.70
77027;BME280;65956;52.986;17.490;2023-04-24T11:19:03;99097.38;;;18.61;62.23
77027;BME280;65956;52.986;17.490;2023-04-24T11:21:54;99096.85;;;18.78;60.34
77027;BME280;65956;52.986;17.490;2023-04-24T11:24:24;99094.21;;;18.89;60.31
77027;BME280;65956;52.986;17.490;2023-04-24T11:26:55;99093.84;;;19.06;60.20
77027;BME280;65956;52.986;17.490;2023-04-24T11:29:23;99092.82;;;19.26;60.26
77027;BME280;65956;52.986;17.490;2023-04-24T11:32:16;99095.52;;;19.58;59.62
77027;BME280;65956;52.986;17.490;2023-04-24T11:34:49;99092.09;;;19.85;58.26
77027;BME280;65956;52.986;17.490;2023-04-24T11:37:16;99092.73;;;20.19;57.05
77027;BME280;65956;52.986;17.490;2023-04-24T11:39:42;99092.08;;;20.35;56.66
77027;BME280;65956;52.986;17.490;2023-04-24T11:42:09;99089.79;;;20.58;55.29
77027;BME280;65956;52.986;17.490;2023-04-24T11:44:35;99084.07;;;20.96;53.59
77027;BME280;65956;52.986;17.490;2023-04-24T11:47:05;99089.02;;;21.41;52.61
77027;BME280;65956;52.986;17.490;2023-04-24T13:36:34;99032.84;;;21.43;46.50
77027;BME280;65956;52.986;17.490;2023-04-24T13:39:02;99029.23;;;20.92;47.56
77027;BME280;65956;52.986;17.490;2023-04-24T13:41:30;99023.91;;;20.48;48.37
77027;BME280;65956;52.986;17.490;2023-04-24T13:43:56;99025.99;;;20.01;49.00
77027;BME280;65956;52.986;17.490;2023-04-24T13:46:22;99021.48;;;19.68;49.99
77027;BME280;65956;52.986;17.490;2023-04-24T13:48:48;99019.55;;;19.45;50.94
77027;BME280;65956;52.986;17.490;2023-04-24T13:51:14;99021.55;;;19.17;51.53
77027;BME280;65956;52.986;17.490;2023-04-24T13:53:41;99019.20;;;18.96;52.36
77027;BME280;65956;52.986;17.490;2023-04-24T13:56:07;99020.42;;;18.91;53.90
77027;BME280;65956;52.986;17.490;2023-04-24T13:58:33;99022.99;;;18.86;54.45
77027;BME280;65956;52.986;17.490;2023-04-24T14:00:59;99020.26;;;18.69;55.28
77027;BME280;65956;52.986;17.490;2023-04-24T14:03:25;99015.89;;;18.47;55.84
77027;BME280;65956;52.986;17.490;2023-04-24T14:05:51;99010.10;;;18.28;56.77
77027;BME280;65956;52.986;17.490;2023-04-24T14:08:17;99014.98;;;18.17;57.40
77027;BME280;65956;52.986;17.490;2023-04-24T14:10:43;99019.59;;;18.10;58.00
77027;BME280;65956;52.986;17.490;2023-04-24T14:13:09;99034.14;;;18.04;58.86
77027;BME280;65956;52.986;17.490;2023-04-24T14:15:35;99036.27;;;17.97;59.07
77027;BME280;65956;52.986;17.490;2023-04-24T14:18:02;99034.59;;;17.92;59.38
77027;BME280;65956;52.986;17.490;2023-04-24T14:20:28;99030.48;;;17.80;59.80
77027;BME280;65956;52.986;17.490;2023-04-24T14:22:54;99027.87;;;17.74;59.14
77027;BME280;65956;52.986;17.490;2023-04-24T14:25:20;99029.16;;;17.72;59.11
77027;BME280;65956;52.986;17.490;2023-04-24T14:27:48;99028.76;;;17.72;58.68
77027;BME280;65956;52.986;17.490;2023-04-24T14:30:14;99026.48;;;17.82;58.38
77027;BME280;65956;52.986;17.490;2023-04-24T14:32:41;99024.35;;;18.05;57.85
77027;BME280;65956;52.986;17.490;2023-04-24T14:35:07;99022.63;;;18.27;57.13
77027;BME280;65956;52.986;17.490;2023-04-24T14:37:33;99017.48;;;18.44;56.93
77027;BME280;65956;52.986;17.490;2023-04-24T14:40:00;99020.77;;;18.64;56.84
77027;BME280;65956;52.986;17.490;2023-04-24T14:42:26;99013.67;;;18.81;56.74
77027;BME280;65956;52.986;17.490;2023-04-24T14:44:52;99013.19;;;18.88;56.49
77027;BME280;65956;52.986;17.490;2023-04-24T14:47:18;99012.41;;;19.00;56.45